Budapest Bridge — VRIZ5 — position and weather

sailwx.info

Track history (hours):
 
Tides and Currents Weather Stations Pressure Air Temp Water Temp Dewpoint Dewpoint Depression Visibility Wind Speed Wind Dir Waves Ship Positions

Budapest Bridge

Last reported at 2016-Feb-06 10:32 UTC. Time now 2016-Feb-06 11:24 UTC.
Position N 35°37' E 139°46'.

Length 268 m; draft 12.8 m.

Type: Ship. MMSI: 477434200.

Date/timePositionNaut miles runAvg speedWind from/ knotsBaromVisibWave heightAir tempDewpointWater temp
2016-Feb-06 10:32N 35°37' E 139°46'0 0.0
2016-Feb-06 09:29N 35°37' E 139°46'0 0.0
2016-Feb-06 08:34N 35°37' E 139°46'7 7.5
2016-Feb-06 07:33N 35°31' E 139°52'1413.8
2016-Feb-06 06:33N 35°19' E 139°44'1110.7
2016-Feb-06 05:33N 35°09' E 139°47'9 8.6
2016-Feb-06 04:33N 35°02' E 139°40'  
2016-Feb-02 00:33N 17°32' E 117°17'  
2016-Jan-28 09:33N 01°16' E 104°11'1515.5
2016-Jan-28 08:33N 01°13' E 103°56'9 8.8
2016-Jan-28 07:33N 01°14' E 103°47'3 2.6
2016-Jan-28 06:22N 01°17' E 103°46'0 0.0
2016-Jan-28 05:16N 01°17' E 103°46'0 0.0
2016-Jan-28 04:28N 01°17' E 103°46'0 0.0
2016-Jan-28 03:28N 01°17' E 103°46'0 0.0
2016-Jan-28 02:22N 01°17' E 103°46'0 0.0
2016-Jan-28 01:22N 01°17' E 103°46'0 0.0
2016-Jan-28 00:28N 01°17' E 103°46'0 0.0
2016-Jan-27 23:28N 01°17' E 103°46'0 0.0
2016-Jan-27 22:28N 01°17' E 103°46'0 0.0
2016-Jan-27 21:16N 01°17' E 103°46'0 0.0
2016-Jan-27 20:07N 01°17' E 103°46'0 0.0
2016-Jan-27 19:22N 01°17' E 103°46'0 0.0
2016-Jan-27 18:22N 01°17' E 103°46'0 0.0
2016-Jan-27 17:19N 01°17' E 103°46'0 0.0
2016-Jan-27 16:16N 01°17' E 103°46'0 0.0
2016-Jan-27 15:31N 01°17' E 103°46'1 1.3
2016-Jan-27 14:33N 01°17' E 103°45'8 7.6
2016-Jan-27 13:29N 01°13' E 103°52'3 2.7
2016-Jan-27 12:30N 01°16' E 103°51'0 0.0
2016-Jan-27 11:30N 01°16' E 103°51'  
Track history (hours):
 
Tides and Currents Weather Stations Pressure Air Temp Water Temp Dewpoint Dewpoint Depression Visibility Wind Speed Wind Dir Waves Ship Positions

Budapest Bridge

Last reported at 2016-Feb-06 10:32 UTC. Time now 2016-Feb-06 11:24 UTC.
Position N 35°37' E 139°46'.

Length 268 m; draft 12.8 m.

Type: Ship. MMSI: 477434200.

Date/timePositionNaut miles runAvg speedWind from/ knotsBaromVisibWave heightAir tempDewpointWater temp
2016-Feb-06 10:32N 35°37' E 139°46'0 0.0
2016-Feb-06 09:29N 35°37' E 139°46'0 0.0
2016-Feb-06 08:34N 35°37' E 139°46'7 7.5
2016-Feb-06 07:33N 35°31' E 139°52'1413.8
2016-Feb-06 06:33N 35°19' E 139°44'1110.7
2016-Feb-06 05:33N 35°09' E 139°47'9 8.6
2016-Feb-06 04:33N 35°02' E 139°40'  
2016-Feb-02 00:33N 17°32' E 117°17'  
2016-Jan-28 09:33N 01°16' E 104°11'1515.5
2016-Jan-28 08:33N 01°13' E 103°56'9 8.8
2016-Jan-28 07:33N 01°14' E 103°47'3 2.6
2016-Jan-28 06:22N 01°17' E 103°46'0 0.0
2016-Jan-28 05:16N 01°17' E 103°46'0 0.0
2016-Jan-28 04:28N 01°17' E 103°46'0 0.0
2016-Jan-28 03:28N 01°17' E 103°46'0 0.0
2016-Jan-28 02:22N 01°17' E 103°46'0 0.0
2016-Jan-28 01:22N 01°17' E 103°46'0 0.0
2016-Jan-28 00:28N 01°17' E 103°46'0 0.0
2016-Jan-27 23:28N 01°17' E 103°46'0 0.0
2016-Jan-27 22:28N 01°17' E 103°46'0 0.0
2016-Jan-27 21:16N 01°17' E 103°46'0 0.0
2016-Jan-27 20:07N 01°17' E 103°46'0 0.0
2016-Jan-27 19:22N 01°17' E 103°46'0 0.0
2016-Jan-27 18:22N 01°17' E 103°46'0 0.0
2016-Jan-27 17:19N 01°17' E 103°46'0 0.0
2016-Jan-27 16:16N 01°17' E 103°46'0 0.0
2016-Jan-27 15:31N 01°17' E 103°46'1 1.3
2016-Jan-27 14:33N 01°17' E 103°45'8 7.6
2016-Jan-27 13:29N 01°13' E 103°52'3 2.7
2016-Jan-27 12:30N 01°16' E 103°51'0 0.0
2016-Jan-27 11:30N 01°16' E 103°51'  

Dump ship's entire track history